Yorktown Express — WDD6127 — position and weather

sailwx.info

Track history (hours):
 
Tides and Currents Weather Stations Pressure Air Temp Water Temp Dewpoint Dewpoint Depression Visibility Wind Speed Wind Dir Waves Ship Positions

Yorktown Express

Owner: Marine Transport Management, Inc., Jacksonville, FL. More information available from US FCC via Universal Licensing System and Coast Guard Vessel Documentation Center.

Last reported at 2016-Dec-03 18:00 UTC. Time now 2016-Dec-03 19:40 UTC.
Position N 45°42' W 032°24'.

Type: Ship. MMSI: 367168650.

Wind from 190 at 7 knots

Barometer 992.1 mb
Air temperature 16.0 ° C
Visibility: greater than 10.8 NM
Dewpoint 11.4 ° C
Water temperature 17.0 ° C

Date/timePositionNaut miles runAvg speedWind from/ knotsBaromVisibWave heightAir tempDewpointWater temp
2016-Dec-03 18:00N 45°42' W 032°24'10517.4 190 / 7992.110.8 16.011.417.0
2016-Dec-03 12:00N 46°24' W 030°06'12120.1 190 / 15993.827.0 15.013.217.0
2016-Dec-03 06:00N 47°00' W 027°18'10016.7 120 / 15993.5 5.4 16.014.317.0
2016-Dec-03 00:00N 47°36' W 025°00'11719.4 100 / 31999.7 5.4 14.010.217.0
2016-Dec-02 18:00N 48°06' W 022°12'11819.7 140 / 221006.210.8 15.0 9.217.0
2016-Dec-02 12:00N 48°30' W 019°18'11719.6 140 / 241011.5 5.4 14.010.217.0
2016-Dec-02 06:00N 48°54' W 016°24'11318.8 120 / 241015.410.8 14.012.215.0
2016-Dec-02 00:00N 49°18' W 013°36'11819.6 120 / 251022.027.0 14.010.217.0
2016-Dec-01 18:00N 49°30' W 010°36'11719.5 110 / 181026.027.0 12.010.115.0
2016-Dec-01 12:00N 49°36' W 007°36'5119.3 110 / 211029.827.0 16.012.413.0
2016-Dec-01 09:21N 49°43' W 006°18'2320.0
2016-Dec-01 08:13N 49°46' W 005°43'1419.3
2016-Dec-01 07:30N 49°48' W 005°22'1818.7
2016-Dec-01 06:34N 49°51' W 004°55'1918.6
2016-Dec-01 05:34N 49°52' W 004°26'1918.8
2016-Dec-01 04:34N 49°54' W 003°57'1919.5
2016-Dec-01 03:34N 49°56' W 003°27'2120.5
2016-Dec-01 02:33N 49°57' W 002°55'2221.9
2016-Dec-01 01:33N 50°04' W 002°23'2221.8
2016-Dec-01 00:33N 50°11' W 001°50'2019.7
2016-Nov-30 23:33N 50°20' W 001°23'1818.1
2016-Nov-30 22:33N 50°33' W 001°02'10 9.8
2016-Nov-30 21:33N 50°42' W 000°57'1514.8
2016-Nov-30 20:33N 50°48' W 001°18'8 8.1
2016-Nov-30 19:31N 50°54' W 001°27'1 0.9
2016-Nov-30 18:33N 50°55' W 001°28'0 0.0
2016-Nov-30 17:32N 50°55' W 001°28'0 0.0
2016-Nov-30 16:33N 50°55' W 001°28'0 0.0
2016-Nov-30 15:33N 50°55' W 001°28'0 0.0
2016-Nov-30 14:28N 50°55' W 001°28'0 0.0
2016-Nov-30 13:33N 50°55' W 001°28'0 0.0
2016-Nov-30 12:32N 50°55' W 001°28'0 0.0
2016-Nov-30 11:33N 50°55' W 001°28'0 0.0
2016-Nov-30 10:31N 50°55' W 001°28'0 0.0
2016-Nov-30 09:18N 50°55' W 001°28'0 0.0
2016-Nov-30 07:22N 50°55' W 001°28'0 0.0
2016-Nov-30 06:20N 50°55' W 001°28'0 0.0
2016-Nov-30 05:21N 50°55' W 001°28'0 0.0
2016-Nov-30 04:34N 50°55' W 001°28'0 0.0
2016-Nov-30 03:32N 50°55' W 001°28'0 0.0
2016-Nov-30 02:25N 50°55' W 001°28'0 0.1
2016-Nov-30 01:33N 50°55' W 001°28'5 5.5
2016-Nov-30 00:34N 50°51' W 001°21'9 9.0
2016-Nov-29 23:33N 50°46' W 001°10'1212.4
2016-Nov-29 22:34N 50°37' W 000°55'9 9.5
2016-Nov-29 21:33N 50°35' W 000°41'1616.0
2016-Nov-29 20:33N 50°33' W 000°16'1616.0
2016-Nov-29 19:33N 50°34' E 000°09'1717.3
2016-Nov-29 18:33N 50°37' E 000°36'1919.0
2016-Nov-29 17:33N 50°48' E 001°02'2019.9
2016-Nov-29 16:33N 51°00' E 001°25'2019.5
2016-Nov-29 15:33N 51°14' E 001°48'1818.1
2016-Nov-29 14:33N 51°29' E 002°03'1817.6
2016-Nov-29 13:33N 51°43' E 002°20'1817.7
2016-Nov-29 12:34N 51°57' E 002°37'1918.5
2016-Nov-29 11:33N 52°12' E 002°56'2019.6
2016-Nov-29 10:33N 52°26' E 003°17'2120.4
2016-Nov-29 09:33N 52°42' E 003°39'2120.4
2016-Nov-29 08:31N 52°59' E 004°01'1919.8
2016-Nov-29 07:33N 53°11' E 004°25'1918.9
2016-Nov-29 06:34N 53°28' E 004°40'1818.1
2016-Nov-29 05:33N 53°35' E 005°08'1818.3
2016-Nov-29 04:34N 53°40' E 005°37'1919.4
2016-Nov-29 03:33N 53°48' E 006°08'5719.0
2016-Nov-29 00:33N 53°55' E 007°43'1514.5
2016-Nov-28 23:33N 53°50' E 008°06'1616.0
2016-Nov-28 22:33N 53°39' E 008°25'5 5.0
2016-Nov-28 21:31N 53°35' E 008°32'0 0.0
2016-Nov-28 20:31N 53°35' E 008°32'0 0.0
2016-Nov-28 19:31N 53°35' E 008°32'0 0.0
2016-Nov-28 18:31N 53°35' E 008°32'0 0.0
2016-Nov-28 17:31N 53°35' E 008°32'0 0.0
2016-Nov-28 16:31N 53°35' E 008°32'0 0.0
2016-Nov-28 15:31N 53°35' E 008°32'0 0.0
2016-Nov-28 14:31N 53°35' E 008°32'0 0.0
2016-Nov-28 13:31N 53°35' E 008°32'0 0.0
2016-Nov-28 12:32N 53°35' E 008°32'0 0.0
2016-Nov-28 11:31N 53°35' E 008°32'0 0.0
2016-Nov-28 10:31N 53°35' E 008°32'0 0.0
2016-Nov-28 09:31N 53°35' E 008°32'0 0.0
2016-Nov-28 08:31N 53°35' E 008°32'0 0.0
2016-Nov-28 07:31N 53°35' E 008°32'0 0.0
2016-Nov-28 06:31N 53°35' E 008°32'0 0.0
2016-Nov-28 05:31N 53°35' E 008°32'0 0.0
2016-Nov-28 04:31N 53°35' E 008°32'0 0.0
2016-Nov-28 03:32N 53°35' E 008°32'0 0.0
2016-Nov-28 02:31N 53°35' E 008°32'0 0.0
2016-Nov-28 01:32N 53°35' E 008°32'0 0.0
2016-Nov-28 00:31N 53°35' E 008°32'0 0.0
2016-Nov-27 23:31N 53°35' E 008°32'0 0.0
2016-Nov-27 22:31N 53°35' E 008°32'0 0.0
2016-Nov-27 21:31N 53°35' E 008°32'0 0.5
2016-Nov-27 20:34N 53°35' E 008°31'1211.5
2016-Nov-27 19:33N 53°43' E 008°17'1515.4
2016-Nov-27 18:34N 53°52' E 007°55'1111.0
2016-Nov-27 17:33N 53°54' E 007°37'1512.8
2016-Nov-27 16:23N 53°51' E 007°12'1112.9
2016-Nov-27 15:33N 53°48' E 006°54'1616.3
2016-Nov-27 14:33N 53°46' E 006°27'1615.8
2016-Nov-27 13:33N 53°41' E 006°01'1616.0
2016-Nov-27 12:33N 53°35' E 005°37'1514.8
2016-Nov-27 11:33N 53°31' E 005°12'1615.9
2016-Nov-27 10:33N 53°26' E 004°47'1615.8
2016-Nov-27 09:33N 53°13' E 004°31'1716.7
2016-Nov-27 08:33N 52°58' E 004°18'1716.6
2016-Nov-27 07:33N 52°44' E 004°03'1616.6
2016-Nov-27 06:33N 52°32' E 003°45'1716.7
2016-Nov-27 05:32N 52°18' E 003°30'1717.3
2016-Nov-27 04:33N 52°01' E 003°23'1616.5
2016-Nov-27 03:33N 51°46' E 003°13'1414.4
2016-Nov-27 02:33N 51°32' E 003°07'9 8.6
2016-Nov-27 01:33N 51°25' E 003°14'1313.0
2016-Nov-27 00:34N 51°26' E 003°35'1111.1
2016-Nov-26 23:33N 51°21' E 003°50'8 7.8
2016-Nov-26 22:33N 51°23' E 004°02'9 9.3
2016-Nov-26 21:34N 51°20' E 004°16'0 0.1
2016-Nov-26 20:34N 51°20' E 004°17'0 0.0
2016-Nov-26 19:33N 51°20' E 004°17'0 0.0
2016-Nov-26 18:34N 51°20' E 004°17'0 0.0
2016-Nov-26 17:34N 51°20' E 004°17'0 0.0
2016-Nov-26 16:33N 51°20' E 004°17'0 0.0
2016-Nov-26 15:34N 51°20' E 004°17'0 0.0
2016-Nov-26 14:34N 51°20' E 004°17'0 0.0
2016-Nov-26 13:33N 51°20' E 004°17'0 0.0
2016-Nov-26 12:31N 51°20' E 004°17'0 0.0
2016-Nov-26 11:33N 51°20' E 004°17'0 0.0
2016-Nov-26 10:34N 51°20' E 004°17'0 0.0
2016-Nov-26 09:34N 51°20' E 004°17'0 0.0
2016-Nov-26 08:31N 51°20' E 004°17'0 0.0
2016-Nov-26 07:33N 51°20' E 004°17'0 0.0
2016-Nov-26 06:34N 51°20' E 004°17'0 0.0
2016-Nov-26 05:34N 51°20' E 004°17'0 0.0
2016-Nov-26 04:33N 51°20' E 004°17'0 0.0
2016-Nov-26 03:34N 51°20' E 004°17'0 0.0
2016-Nov-26 02:28N 51°20' E 004°17'0 0.0
2016-Nov-26 01:34N 51°20' E 004°17'0 0.0
2016-Nov-26 00:34N 51°20' E 004°17'0 0.0
2016-Nov-25 23:32N 51°20' E 004°17'0 0.0
2016-Nov-25 22:34N 51°20' E 004°17'0 0.1
2016-Nov-25 21:33N 51°20' E 004°17'7 6.9
2016-Nov-25 20:33N 51°22' E 004°06'9 8.5
2016-Nov-25 19:33N 51°21' E 003°52'1111.0
2016-Nov-25 18:34N 51°26' E 003°36'1111.2
2016-Nov-25 17:33N 51°24' E 003°19'1414.5
2016-Nov-25 16:33N 51°22' E 002°56'1111.4
2016-Nov-25 15:33N 51°22' E 002°37'1615.7
2016-Nov-25 14:34N 51°17' E 002°14'1817.6
2016-Nov-25 13:34N 51°08' E 001°49'1817.8
2016-Nov-25 12:33N 50°56' E 001°29'1817.9
2016-Nov-25 11:33N 50°40' E 001°16'3517.4
2016-Nov-25 09:32N 50°25' E 000°25'1717.7
2016-Nov-25 08:34N 50°21' W 000°01'1918.5
2016-Nov-25 07:33N 50°16' W 000°29'1919.5
2016-Nov-25 06:33N 50°11' W 000°58'2020.1
2016-Nov-25 05:33N 50°06' W 001°28'2020.4
2016-Nov-25 04:33N 50°00' W 001°59'2419.9
2016-Nov-25 03:19N 49°53' W 002°35'1519.2
2016-Nov-25 02:33N 49°49' W 002°57'1918.9
2016-Nov-25 01:32N 49°47' W 003°27'1818.4
2016-Nov-25 00:33N 49°46' W 003°55'1917.9
2016-Nov-24 23:29N 49°44' W 004°24'20217.6
2016-Nov-24 12:00N 49°36' W 009°36'34419.1 050 / 281018.710.8 13.0 9.115.0
2016-Nov-23 18:00N 49°18' W 018°24'   130 / 181019.210.8 10.0 7.915.0
Track history (hours):
 
Tides and Currents Weather Stations Pressure Air Temp Water Temp Dewpoint Dewpoint Depression Visibility Wind Speed Wind Dir Waves Ship Positions

Yorktown Express

Owner: Marine Transport Management, Inc., Jacksonville, FL. More information available from US FCC via Universal Licensing System and Coast Guard Vessel Documentation Center.

Last reported at 2016-Dec-03 18:00 UTC. Time now 2016-Dec-03 19:40 UTC.
Position N 45°42' W 032°24'.

Type: Ship. MMSI: 367168650.

Wind from 190 at 7 knots

Barometer 992.1 mb
Air temperature 16.0 ° C
Visibility: greater than 10.8 NM
Dewpoint 11.4 ° C
Water temperature 17.0 ° C

Date/timePositionNaut miles runAvg speedWind from/ knotsBaromVisibWave heightAir tempDewpointWater temp
2016-Dec-03 18:00N 45°42' W 032°24'10517.4 190 / 7992.110.8 16.011.417.0
2016-Dec-03 12:00N 46°24' W 030°06'12120.1 190 / 15993.827.0 15.013.217.0
2016-Dec-03 06:00N 47°00' W 027°18'10016.7 120 / 15993.5 5.4 16.014.317.0
2016-Dec-03 00:00N 47°36' W 025°00'11719.4 100 / 31999.7 5.4 14.010.217.0
2016-Dec-02 18:00N 48°06' W 022°12'11819.7 140 / 221006.210.8 15.0 9.217.0
2016-Dec-02 12:00N 48°30' W 019°18'11719.6 140 / 241011.5 5.4 14.010.217.0
2016-Dec-02 06:00N 48°54' W 016°24'11318.8 120 / 241015.410.8 14.012.215.0
2016-Dec-02 00:00N 49°18' W 013°36'11819.6 120 / 251022.027.0 14.010.217.0
2016-Dec-01 18:00N 49°30' W 010°36'11719.5 110 / 181026.027.0 12.010.115.0
2016-Dec-01 12:00N 49°36' W 007°36'5119.3 110 / 211029.827.0 16.012.413.0
2016-Dec-01 09:21N 49°43' W 006°18'2320.0
2016-Dec-01 08:13N 49°46' W 005°43'1419.3
2016-Dec-01 07:30N 49°48' W 005°22'1818.7
2016-Dec-01 06:34N 49°51' W 004°55'1918.6
2016-Dec-01 05:34N 49°52' W 004°26'1918.8
2016-Dec-01 04:34N 49°54' W 003°57'1919.5
2016-Dec-01 03:34N 49°56' W 003°27'2120.5
2016-Dec-01 02:33N 49°57' W 002°55'2221.9
2016-Dec-01 01:33N 50°04' W 002°23'2221.8
2016-Dec-01 00:33N 50°11' W 001°50'2019.7
2016-Nov-30 23:33N 50°20' W 001°23'1818.1
2016-Nov-30 22:33N 50°33' W 001°02'10 9.8
2016-Nov-30 21:33N 50°42' W 000°57'1514.8
2016-Nov-30 20:33N 50°48' W 001°18'8 8.1
2016-Nov-30 19:31N 50°54' W 001°27'1 0.9
2016-Nov-30 18:33N 50°55' W 001°28'0 0.0
2016-Nov-30 17:32N 50°55' W 001°28'0 0.0
2016-Nov-30 16:33N 50°55' W 001°28'0 0.0
2016-Nov-30 15:33N 50°55' W 001°28'0 0.0
2016-Nov-30 14:28N 50°55' W 001°28'0 0.0
2016-Nov-30 13:33N 50°55' W 001°28'0 0.0
2016-Nov-30 12:32N 50°55' W 001°28'0 0.0
2016-Nov-30 11:33N 50°55' W 001°28'0 0.0
2016-Nov-30 10:31N 50°55' W 001°28'0 0.0
2016-Nov-30 09:18N 50°55' W 001°28'0 0.0
2016-Nov-30 07:22N 50°55' W 001°28'0 0.0
2016-Nov-30 06:20N 50°55' W 001°28'0 0.0
2016-Nov-30 05:21N 50°55' W 001°28'0 0.0
2016-Nov-30 04:34N 50°55' W 001°28'0 0.0
2016-Nov-30 03:32N 50°55' W 001°28'0 0.0
2016-Nov-30 02:25N 50°55' W 001°28'0 0.1
2016-Nov-30 01:33N 50°55' W 001°28'5 5.5
2016-Nov-30 00:34N 50°51' W 001°21'9 9.0
2016-Nov-29 23:33N 50°46' W 001°10'1212.4
2016-Nov-29 22:34N 50°37' W 000°55'9 9.5
2016-Nov-29 21:33N 50°35' W 000°41'1616.0
2016-Nov-29 20:33N 50°33' W 000°16'1616.0
2016-Nov-29 19:33N 50°34' E 000°09'1717.3
2016-Nov-29 18:33N 50°37' E 000°36'1919.0
2016-Nov-29 17:33N 50°48' E 001°02'2019.9
2016-Nov-29 16:33N 51°00' E 001°25'2019.5
2016-Nov-29 15:33N 51°14' E 001°48'1818.1
2016-Nov-29 14:33N 51°29' E 002°03'1817.6
2016-Nov-29 13:33N 51°43' E 002°20'1817.7
2016-Nov-29 12:34N 51°57' E 002°37'1918.5
2016-Nov-29 11:33N 52°12' E 002°56'2019.6
2016-Nov-29 10:33N 52°26' E 003°17'2120.4
2016-Nov-29 09:33N 52°42' E 003°39'2120.4
2016-Nov-29 08:31N 52°59' E 004°01'1919.8
2016-Nov-29 07:33N 53°11' E 004°25'1918.9
2016-Nov-29 06:34N 53°28' E 004°40'1818.1
2016-Nov-29 05:33N 53°35' E 005°08'1818.3
2016-Nov-29 04:34N 53°40' E 005°37'1919.4
2016-Nov-29 03:33N 53°48' E 006°08'5719.0
2016-Nov-29 00:33N 53°55' E 007°43'1514.5
2016-Nov-28 23:33N 53°50' E 008°06'1616.0
2016-Nov-28 22:33N 53°39' E 008°25'5 5.0
2016-Nov-28 21:31N 53°35' E 008°32'0 0.0
2016-Nov-28 20:31N 53°35' E 008°32'0 0.0
2016-Nov-28 19:31N 53°35' E 008°32'0 0.0
2016-Nov-28 18:31N 53°35' E 008°32'0 0.0
2016-Nov-28 17:31N 53°35' E 008°32'0 0.0
2016-Nov-28 16:31N 53°35' E 008°32'0 0.0
2016-Nov-28 15:31N 53°35' E 008°32'0 0.0
2016-Nov-28 14:31N 53°35' E 008°32'0 0.0
2016-Nov-28 13:31N 53°35' E 008°32'0 0.0
2016-Nov-28 12:32N 53°35' E 008°32'0 0.0
2016-Nov-28 11:31N 53°35' E 008°32'0 0.0
2016-Nov-28 10:31N 53°35' E 008°32'0 0.0
2016-Nov-28 09:31N 53°35' E 008°32'0 0.0
2016-Nov-28 08:31N 53°35' E 008°32'0 0.0
2016-Nov-28 07:31N 53°35' E 008°32'0 0.0
2016-Nov-28 06:31N 53°35' E 008°32'0 0.0
2016-Nov-28 05:31N 53°35' E 008°32'0 0.0
2016-Nov-28 04:31N 53°35' E 008°32'0 0.0
2016-Nov-28 03:32N 53°35' E 008°32'0 0.0
2016-Nov-28 02:31N 53°35' E 008°32'0 0.0
2016-Nov-28 01:32N 53°35' E 008°32'0 0.0
2016-Nov-28 00:31N 53°35' E 008°32'0 0.0
2016-Nov-27 23:31N 53°35' E 008°32'0 0.0
2016-Nov-27 22:31N 53°35' E 008°32'0 0.0
2016-Nov-27 21:31N 53°35' E 008°32'0 0.5
2016-Nov-27 20:34N 53°35' E 008°31'1211.5
2016-Nov-27 19:33N 53°43' E 008°17'1515.4
2016-Nov-27 18:34N 53°52' E 007°55'1111.0
2016-Nov-27 17:33N 53°54' E 007°37'1512.8
2016-Nov-27 16:23N 53°51' E 007°12'1112.9
2016-Nov-27 15:33N 53°48' E 006°54'1616.3
2016-Nov-27 14:33N 53°46' E 006°27'1615.8
2016-Nov-27 13:33N 53°41' E 006°01'1616.0
2016-Nov-27 12:33N 53°35' E 005°37'1514.8
2016-Nov-27 11:33N 53°31' E 005°12'1615.9
2016-Nov-27 10:33N 53°26' E 004°47'1615.8
2016-Nov-27 09:33N 53°13' E 004°31'1716.7
2016-Nov-27 08:33N 52°58' E 004°18'1716.6
2016-Nov-27 07:33N 52°44' E 004°03'1616.6
2016-Nov-27 06:33N 52°32' E 003°45'1716.7
2016-Nov-27 05:32N 52°18' E 003°30'1717.3
2016-Nov-27 04:33N 52°01' E 003°23'1616.5
2016-Nov-27 03:33N 51°46' E 003°13'1414.4
2016-Nov-27 02:33N 51°32' E 003°07'9 8.6
2016-Nov-27 01:33N 51°25' E 003°14'1313.0
2016-Nov-27 00:34N 51°26' E 003°35'1111.1
2016-Nov-26 23:33N 51°21' E 003°50'8 7.8
2016-Nov-26 22:33N 51°23' E 004°02'9 9.3
2016-Nov-26 21:34N 51°20' E 004°16'0 0.1
2016-Nov-26 20:34N 51°20' E 004°17'0 0.0
2016-Nov-26 19:33N 51°20' E 004°17'0 0.0
2016-Nov-26 18:34N 51°20' E 004°17'0 0.0
2016-Nov-26 17:34N 51°20' E 004°17'0 0.0
2016-Nov-26 16:33N 51°20' E 004°17'0 0.0
2016-Nov-26 15:34N 51°20' E 004°17'0 0.0
2016-Nov-26 14:34N 51°20' E 004°17'0 0.0
2016-Nov-26 13:33N 51°20' E 004°17'0 0.0
2016-Nov-26 12:31N 51°20' E 004°17'0 0.0
2016-Nov-26 11:33N 51°20' E 004°17'0 0.0
2016-Nov-26 10:34N 51°20' E 004°17'0 0.0
2016-Nov-26 09:34N 51°20' E 004°17'0 0.0
2016-Nov-26 08:31N 51°20' E 004°17'0 0.0
2016-Nov-26 07:33N 51°20' E 004°17'0 0.0
2016-Nov-26 06:34N 51°20' E 004°17'0 0.0
2016-Nov-26 05:34N 51°20' E 004°17'0 0.0
2016-Nov-26 04:33N 51°20' E 004°17'0 0.0
2016-Nov-26 03:34N 51°20' E 004°17'0 0.0
2016-Nov-26 02:28N 51°20' E 004°17'0 0.0
2016-Nov-26 01:34N 51°20' E 004°17'0 0.0
2016-Nov-26 00:34N 51°20' E 004°17'0 0.0
2016-Nov-25 23:32N 51°20' E 004°17'0 0.0
2016-Nov-25 22:34N 51°20' E 004°17'0 0.1
2016-Nov-25 21:33N 51°20' E 004°17'7 6.9
2016-Nov-25 20:33N 51°22' E 004°06'9 8.5
2016-Nov-25 19:33N 51°21' E 003°52'1111.0
2016-Nov-25 18:34N 51°26' E 003°36'1111.2
2016-Nov-25 17:33N 51°24' E 003°19'1414.5
2016-Nov-25 16:33N 51°22' E 002°56'1111.4
2016-Nov-25 15:33N 51°22' E 002°37'1615.7
2016-Nov-25 14:34N 51°17' E 002°14'1817.6
2016-Nov-25 13:34N 51°08' E 001°49'1817.8
2016-Nov-25 12:33N 50°56' E 001°29'1817.9
2016-Nov-25 11:33N 50°40' E 001°16'3517.4
2016-Nov-25 09:32N 50°25' E 000°25'1717.7
2016-Nov-25 08:34N 50°21' W 000°01'1918.5
2016-Nov-25 07:33N 50°16' W 000°29'1919.5
2016-Nov-25 06:33N 50°11' W 000°58'2020.1
2016-Nov-25 05:33N 50°06' W 001°28'2020.4
2016-Nov-25 04:33N 50°00' W 001°59'2419.9
2016-Nov-25 03:19N 49°53' W 002°35'1519.2
2016-Nov-25 02:33N 49°49' W 002°57'1918.9
2016-Nov-25 01:32N 49°47' W 003°27'1818.4
2016-Nov-25 00:33N 49°46' W 003°55'1917.9
2016-Nov-24 23:29N 49°44' W 004°24'20217.6
2016-Nov-24 12:00N 49°36' W 009°36'34419.1 050 / 281018.710.8 13.0 9.115.0
2016-Nov-23 18:00N 49°18' W 018°24'   130 / 181019.210.8 10.0 7.915.0

Dump ship's entire track history